createdAt,value
2016-06-13T00:00:18.403Z,0
2016-06-13T00:01:18.438Z,0
2016-06-13T00:02:18.457Z,0
2016-06-13T00:03:18.490Z,0
2016-06-13T00:04:18.540Z,0
2016-06-13T00:05:18.372Z,0
2016-06-13T00:06:18.562Z,0
2016-06-13T00:07:18.597Z,0
2016-06-13T00:08:18.614Z,0
2016-06-13T00:09:18.634Z,0
2016-06-13T00:10:18.652Z,0
2016-06-13T00:11:18.984Z,0
2016-06-13T00:12:18.737Z,0
2016-06-13T00:13:18.803Z,0
2016-06-13T00:14:18.774Z,0
2016-06-13T00:15:18.792Z,0
2016-06-13T00:16:18.920Z,0
2016-06-13T00:17:18.862Z,0
2016-06-13T00:18:19.427Z,0
2016-06-13T00:19:18.898Z,0
2016-06-13T00:20:18.793Z,0
2016-06-13T00:21:18.968Z,0
2016-06-13T00:22:18.814Z,0
2016-06-13T00:23:19.005Z,0
2016-06-13T00:24:19.040Z,0
2016-06-13T00:25:19.073Z,0
2016-06-13T00:26:19.108Z,0
2016-06-13T00:27:19.126Z,0
2016-06-13T00:28:19.129Z,0
2016-06-13T00:29:19.008Z,0
2016-06-13T00:30:19.198Z,0
2016-06-13T00:31:19.216Z,0
2016-06-13T00:32:19.252Z,0
2016-06-13T00:33:19.270Z,0
2016-06-13T00:34:19.148Z,0
2016-06-13T00:35:19.323Z,0
2016-06-13T00:36:19.201Z,0
2016-06-13T00:37:19.407Z,0
2016-06-13T00:38:19.410Z,0
2016-06-13T00:39:19.429Z,0
2016-06-13T00:40:19.464Z,0
2016-06-13T00:41:20.888Z,0
2016-06-13T00:42:19.516Z,0
2016-06-13T00:43:19.536Z,0
2016-06-13T00:44:19.554Z,0
2016-06-13T00:45:19.431Z,0
2016-06-13T00:46:19.623Z,0
2016-06-13T00:47:19.672Z,0
2016-06-13T00:48:19.660Z,0
2016-06-13T00:49:19.694Z,0
2016-06-13T00:50:19.729Z,0
2016-06-13T00:51:19.607Z,0
2016-06-13T00:52:19.766Z,0
2016-06-13T00:53:19.784Z,0
2016-06-13T00:54:19.835Z,0
2016-06-13T00:55:19.853Z,0
2016-06-13T00:56:19.904Z,0
2016-06-13T00:57:19.907Z,0
2016-06-13T00:58:19.785Z,0
2016-06-13T00:59:19.960Z,0
2016-06-13T01:00:19.994Z,0
2016-06-13T01:01:19.856Z,0
2016-06-13T01:02:20.047Z,0
2016-06-13T01:03:20.050Z,0
2016-06-13T01:04:19.943Z,0
2016-06-13T01:05:19.947Z,0
2016-06-13T01:06:20.168Z,0
2016-06-13T01:07:20.171Z,0
2016-06-13T01:08:20.206Z,0
2016-06-13T01:09:20.208Z,0
2016-06-13T01:10:20.243Z,0
2016-06-13T01:11:20.277Z,0
2016-06-13T01:12:20.297Z,0
2016-06-13T01:13:21.221Z,0
2016-06-13T01:14:20.348Z,0
2016-06-13T01:15:20.290Z,0
2016-06-13T01:16:20.324Z,0
2016-06-13T01:17:20.499Z,0
2016-06-13T01:18:20.252Z,0
2016-06-13T01:19:20.474Z,0
2016-06-13T01:20:20.508Z,0
2016-06-13T01:21:20.527Z,0
2016-06-13T01:22:20.562Z,0
2016-06-13T01:23:20.581Z,0
2016-06-13T01:24:20.614Z,0
2016-06-13T01:25:20.492Z,0
2016-06-13T01:26:21.057Z,0
2016-06-13T01:27:20.702Z,0
2016-06-13T01:28:20.799Z,0
2016-06-13T01:29:20.755Z,0
2016-06-13T01:30:20.789Z,0
2016-06-13T01:31:20.651Z,0
2016-06-13T01:32:20.858Z,0
2016-06-13T01:33:20.845Z,0
2016-06-13T01:34:20.880Z,0
2016-06-13T01:35:20.742Z,0
2016-06-13T01:36:20.948Z,0
2016-06-13T01:37:20.795Z,0
2016-06-13T01:38:20.986Z,0
2016-06-13T01:39:20.848Z,0
2016-06-13T01:40:21.022Z,0
2016-06-13T01:41:21.948Z,0
2016-06-13T01:42:21.092Z,0
2016-06-13T01:43:21.110Z,0
2016-06-13T01:44:20.863Z,0
2016-06-13T01:45:21.180Z,0
2016-06-13T01:46:21.229Z,0
2016-06-13T01:47:21.216Z,0
2016-06-13T01:48:21.235Z,0
2016-06-13T01:49:21.253Z,0
2016-06-13T01:50:21.289Z,0
2016-06-13T01:51:21.322Z,0
2016-06-13T01:52:21.340Z,0
2016-06-13T01:53:21.375Z,0
2016-06-13T01:54:21.426Z,0
2016-06-13T01:55:21.412Z,0
2016-06-13T01:56:21.963Z,0
2016-06-13T01:57:21.481Z,0
2016-06-13T01:58:21.500Z,0
2016-06-13T01:59:21.519Z,0
2016-06-13T02:00:21.397Z,0
2016-06-13T02:01:21.588Z,0
2016-06-13T02:02:21.606Z,0
2016-06-13T02:03:21.624Z,0
2016-06-13T02:04:21.675Z,0
2016-06-13T02:05:21.693Z,0
2016-06-13T02:06:21.744Z,0
2016-06-13T02:07:21.731Z,0
2016-06-13T02:08:21.764Z,0
2016-06-13T02:09:21.784Z,0
2016-06-13T02:10:21.850Z,0
2016-06-13T02:11:22.056Z,0
2016-06-13T02:12:21.871Z,0
2016-06-13T02:13:21.905Z,0
2016-06-13T02:14:21.955Z,0
2016-06-13T02:15:21.959Z,0
2016-06-13T02:16:21.977Z,0
2016-06-13T02:17:22.011Z,0
2016-06-13T02:18:22.030Z,0
2016-06-13T02:19:22.065Z,0
2016-06-13T02:20:22.084Z,0
2016-06-13T02:21:22.102Z,0
2016-06-13T02:22:22.137Z,0
2016-06-13T02:23:22.171Z,0
2016-06-13T02:24:22.189Z,0
2016-06-13T02:25:22.224Z,0
2016-06-13T02:26:22.274Z,0
2016-06-13T02:27:22.277Z,0
2016-06-13T02:28:22.280Z,0
2016-06-13T02:29:22.315Z,0
2016-06-13T02:30:22.348Z,0
2016-06-13T02:31:22.430Z,0
2016-06-13T02:32:22.402Z,0
2016-06-13T02:33:22.421Z,0
2016-06-13T02:34:22.282Z,0
2016-06-13T02:35:22.473Z,0
2016-06-13T02:36:22.508Z,0
2016-06-13T02:37:22.526Z,0
2016-06-13T02:38:22.420Z,0
2016-06-13T02:39:22.579Z,0
2016-06-13T02:40:22.598Z,0
2016-06-13T02:41:22.632Z,0
2016-06-13T02:42:22.651Z,0
2016-06-13T02:43:22.686Z,0
2016-06-13T02:44:22.705Z,0
2016-06-13T02:45:22.582Z,0
2016-06-13T02:46:22.617Z,0
2016-06-13T02:47:22.792Z,0
2016-06-13T02:48:22.810Z,0
2016-06-13T02:49:22.687Z,0
2016-06-13T02:50:22.862Z,0
2016-06-13T02:51:22.929Z,0
2016-06-13T02:52:22.916Z,0
2016-06-13T02:53:22.810Z,0
2016-06-13T02:54:22.969Z,0
2016-06-13T02:55:23.004Z,0
2016-06-13T02:56:23.850Z,0
2016-06-13T02:57:23.056Z,0
2016-06-13T02:58:23.076Z,0
2016-06-13T02:59:23.110Z,0
2016-06-13T03:00:23.113Z,0
2016-06-13T03:01:23.162Z,0
2016-06-13T03:02:23.181Z,0
2016-06-13T03:03:22.888Z,0
2016-06-13T03:04:23.250Z,0
2016-06-13T03:05:23.253Z,0
2016-06-13T03:06:23.287Z,0
2016-06-13T03:07:23.306Z,0
2016-06-13T03:08:23.185Z,0
2016-06-13T03:09:23.406Z,0
2016-06-13T03:10:23.440Z,0
2016-06-13T03:11:23.444Z,0
2016-06-13T03:12:23.744Z,0
2016-06-13T03:13:23.480Z,0
2016-06-13T03:14:23.484Z,0
2016-06-13T03:15:23.534Z,0
2016-06-13T03:16:23.552Z,0
2016-06-13T03:17:23.602Z,0
2016-06-13T03:18:23.605Z,0
2016-06-13T03:19:23.624Z,0
2016-06-13T03:20:23.643Z,0
2016-06-13T03:21:23.694Z,0
2016-06-13T03:22:23.696Z,0
2016-06-13T03:23:23.730Z,0
2016-06-13T03:24:23.764Z,0
2016-06-13T03:25:23.799Z,0
2016-06-13T03:26:24.614Z,0
2016-06-13T03:27:23.904Z,0
2016-06-13T03:28:23.933Z,0
2016-06-13T03:29:23.991Z,0
2016-06-13T03:30:24.051Z,0
2016-06-13T03:31:24.125Z,0
2016-06-13T03:32:24.187Z,0
2016-06-13T03:33:24.218Z,0
2016-06-13T03:34:24.252Z,0
2016-06-13T03:35:24.316Z,0
2016-06-13T03:36:24.177Z,0
2016-06-13T03:37:24.377Z,0
2016-06-13T03:38:24.401Z,0
2016-06-13T03:39:24.441Z,0
2016-06-13T03:40:24.496Z,0
2016-06-13T03:41:24.958Z,0
2016-06-13T03:42:25.104Z,0
2016-06-13T03:43:24.563Z,0
2016-06-13T03:44:24.614Z,0
2016-06-13T03:45:24.635Z,0
2016-06-13T03:46:24.624Z,0
2016-06-13T03:47:24.661Z,0
2016-06-13T03:48:24.696Z,0
2016-06-13T03:49:24.715Z,0
2016-06-13T03:50:24.453Z,0
2016-06-13T03:51:24.613Z,0
2016-06-13T03:52:24.648Z,0
2016-06-13T03:53:24.822Z,0
2016-06-13T03:54:24.686Z,0
2016-06-13T03:55:24.891Z,0
2016-06-13T03:56:25.129Z,0
2016-06-13T03:57:25.101Z,0
2016-06-13T03:58:24.995Z,0
2016-06-13T03:59:24.982Z,0
2016-06-13T04:00:24.860Z,0
2016-06-13T04:01:25.035Z,0
2016-06-13T04:02:25.069Z,0
2016-06-13T04:03:25.089Z,0
2016-06-13T04:04:25.122Z,5
2016-06-13T04:05:25.142Z,5
2016-06-13T04:06:25.190Z,5
2016-06-13T04:07:25.038Z,5
2016-06-13T04:08:25.072Z,5
2016-06-13T04:09:25.246Z,5
2016-06-13T04:10:25.282Z,5
2016-06-13T04:11:26.785Z,5
2016-06-13T04:12:25.991Z,5
2016-06-13T04:13:25.447Z,5
2016-06-13T04:14:25.387Z,5
2016-06-13T04:15:25.406Z,5
2016-06-13T04:16:25.441Z,5
2016-06-13T04:17:25.443Z,5
2016-06-13T04:18:25.477Z,5
2016-06-13T04:19:25.497Z,5
2016-06-13T04:20:25.531Z,5
2016-06-13T04:21:25.549Z,10
2016-06-13T04:22:25.427Z,10
2016-06-13T04:23:25.617Z,10
2016-06-13T04:24:25.637Z,10
2016-06-13T04:25:25.656Z,10
2016-06-13T04:26:26.298Z,15
2016-06-13T04:27:26.115Z,20
2016-06-13T04:28:25.587Z,20
2016-06-13T04:29:25.793Z,25
2016-06-13T04:30:25.655Z,30
2016-06-13T04:31:25.815Z,30
2016-06-13T04:32:25.849Z,30
2016-06-13T04:33:25.883Z,30
2016-06-13T04:34:25.589Z,30
2016-06-13T04:35:25.936Z,30
2016-06-13T04:36:25.955Z,35
2016-06-13T04:37:25.973Z,35
2016-06-13T04:38:26.008Z,35
2016-06-13T04:39:26.027Z,35
2016-06-13T04:40:26.045Z,35
2016-06-13T04:41:26.080Z,35
2016-06-13T04:42:26.301Z,30
2016-06-13T04:43:26.179Z,30
2016-06-13T04:44:26.168Z,25
2016-06-13T04:45:26.185Z,25
2016-06-13T04:46:26.063Z,25
2016-06-13T04:47:26.224Z,25
2016-06-13T04:48:26.257Z,20
2016-06-13T04:49:26.291Z,20
2016-06-13T04:50:26.325Z,20
2016-06-13T04:51:26.345Z,20
2016-06-13T04:52:26.379Z,20
2016-06-13T04:53:26.382Z,20
2016-06-13T04:54:26.417Z,20
2016-06-13T04:55:26.451Z,20
2016-06-13T04:56:26.485Z,15
2016-06-13T04:57:27.067Z,20
2016-06-13T04:58:26.539Z,15
2016-06-13T04:59:26.557Z,10
2016-06-13T05:00:26.435Z,10
2016-06-13T05:01:26.657Z,10
2016-06-13T05:02:26.645Z,10
2016-06-13T05:03:26.648Z,10
2016-06-13T05:04:26.682Z,10
2016-06-13T05:05:26.700Z,10
2016-06-13T05:06:26.750Z,10
2016-06-13T05:07:26.613Z,10
2016-06-13T05:08:26.788Z,10
2016-06-13T05:09:26.806Z,10
2016-06-13T05:10:26.841Z,15
2016-06-13T05:11:26.890Z,10
2016-06-13T05:12:26.753Z,10
2016-06-13T05:13:26.928Z,15
2016-06-13T05:14:26.947Z,15
2016-06-13T05:15:26.825Z,15
2016-06-13T05:16:26.999Z,15
2016-06-13T05:17:27.050Z,10
2016-06-13T05:18:27.053Z,10
2016-06-13T05:19:27.119Z,10
2016-06-13T05:20:26.950Z,10
2016-06-13T05:21:27.140Z,10
2016-06-13T05:22:27.159Z,10
2016-06-13T05:23:27.021Z,15
2016-06-13T05:24:27.212Z,25
2016-06-13T05:25:27.090Z,25
2016-06-13T05:26:27.281Z,25
2016-06-13T05:27:27.159Z,25
2016-06-13T05:28:27.317Z,25
2016-06-13T05:29:27.367Z,25
2016-06-13T05:30:27.371Z,30
2016-06-13T05:31:27.437Z,35
2016-06-13T05:32:27.409Z,35
2016-06-13T05:33:27.458Z,30
2016-06-13T05:34:27.477Z,25
2016-06-13T05:35:27.511Z,20
2016-06-13T05:36:27.514Z,20
2016-06-13T05:37:27.549Z,20
2016-06-13T05:38:27.583Z,20
2016-06-13T05:39:27.601Z,20
2016-06-13T05:40:27.636Z,25
2016-06-13T05:41:27.654Z,20
2016-06-13T05:42:28.143Z,25
2016-06-13T05:43:27.739Z,25
2016-06-13T05:44:27.727Z,30
2016-06-13T05:45:27.761Z,25
2016-06-13T05:46:27.795Z,20
2016-06-13T05:47:27.814Z,20
2016-06-13T05:48:27.864Z,25
2016-06-13T05:49:27.867Z,25
2016-06-13T05:50:27.901Z,25
2016-06-13T05:51:27.920Z,25
2016-06-13T05:52:27.954Z,20
2016-06-13T05:53:27.988Z,15
2016-06-13T05:54:27.836Z,15
2016-06-13T05:55:28.026Z,15
2016-06-13T05:56:28.044Z,15
2016-06-13T05:57:28.970Z,15
2016-06-13T05:58:28.114Z,15
2016-06-13T05:59:28.132Z,20
2016-06-13T06:00:28.166Z,20
2016-06-13T06:01:28.184Z,20
2016-06-13T06:02:28.204Z,20
2016-06-13T06:03:28.238Z,15
2016-06-13T06:04:28.272Z,15
2016-06-13T06:05:28.291Z,15
2016-06-13T06:06:28.201Z,20
2016-06-13T06:07:28.187Z,20
2016-06-13T06:08:28.378Z,20
2016-06-13T06:09:28.397Z,20
2016-06-13T06:10:28.432Z,20
2016-06-13T06:11:28.450Z,20
2016-06-13T06:12:28.515Z,20
2016-06-13T06:13:28.753Z,20
2016-06-13T06:14:28.538Z,15
2016-06-13T06:15:28.572Z,15
2016-06-13T06:16:28.590Z,15
2016-06-13T06:17:28.625Z,15
2016-06-13T06:18:28.643Z,15
2016-06-13T06:19:28.506Z,15
2016-06-13T06:20:28.696Z,15
2016-06-13T06:21:28.730Z,15
2016-06-13T06:22:28.733Z,15
2016-06-13T06:23:28.784Z,10
2016-06-13T06:24:28.803Z,10
2016-06-13T06:25:28.821Z,10
2016-06-13T06:26:28.840Z,10
2016-06-13T06:27:29.640Z,5
2016-06-13T06:28:28.909Z,5
2016-06-13T06:29:28.927Z,5
2016-06-13T06:30:28.946Z,5
2016-06-13T06:31:28.980Z,5
2016-06-13T06:32:28.999Z,5
2016-06-13T06:33:29.033Z,5
2016-06-13T06:34:28.912Z,5
2016-06-13T06:35:29.087Z,5
2016-06-13T06:36:29.137Z,5
2016-06-13T06:37:29.154Z,5
2016-06-13T06:38:29.017Z,0
2016-06-13T06:39:29.208Z,0
2016-06-13T06:40:29.227Z,0
2016-06-13T06:41:29.246Z,0
2016-06-13T06:42:29.920Z,5
2016-06-13T06:43:29.330Z,5
2016-06-13T06:44:29.317Z,5
2016-06-13T06:45:29.351Z,5
2016-06-13T06:46:29.386Z,10
2016-06-13T06:47:29.405Z,10
2016-06-13T06:48:29.438Z,10
2016-06-13T06:49:29.474Z,10
2016-06-13T06:50:29.476Z,10
2016-06-13T06:51:29.511Z,10
2016-06-13T06:52:29.389Z,10
2016-06-13T06:53:29.564Z,10
2016-06-13T06:54:29.598Z,10
2016-06-13T06:55:29.616Z,10
2016-06-13T06:56:29.682Z,10
2016-06-13T06:57:29.810Z,10
2016-06-13T06:58:29.704Z,10
2016-06-13T06:59:29.722Z,5
2016-06-13T07:00:29.741Z,5
2016-06-13T07:01:29.776Z,5
2016-06-13T07:02:29.810Z,5
2016-06-13T07:03:29.828Z,5
2016-06-13T07:04:29.707Z,10
2016-06-13T07:05:29.726Z,10
2016-06-13T07:06:29.916Z,10
2016-06-13T07:07:29.810Z,5
2016-06-13T07:08:29.969Z,5
2016-06-13T07:09:29.988Z,5
2016-06-13T07:10:30.053Z,5
2016-06-13T07:11:30.056Z,5
2016-06-13T07:12:29.934Z,5
2016-06-13T07:13:30.250Z,5
2016-06-13T07:14:30.129Z,5
2016-06-13T07:15:30.146Z,5
2016-06-13T07:16:30.182Z,5
2016-06-13T07:17:30.200Z,5
2016-06-13T07:18:29.922Z,5
2016-06-13T07:19:30.269Z,5
2016-06-13T07:20:30.286Z,5
2016-06-13T07:21:30.306Z,5
2016-06-13T07:22:30.168Z,5
2016-06-13T07:23:30.359Z,10
2016-06-13T07:24:30.393Z,10
2016-06-13T07:25:30.428Z,10
2016-06-13T07:26:30.430Z,15
2016-06-13T07:27:31.262Z,15
2016-06-13T07:28:30.516Z,20
2016-06-13T07:29:30.519Z,20
2016-06-13T07:30:30.239Z,25
2016-06-13T07:31:30.414Z,25
2016-06-13T07:32:30.605Z,30
2016-06-13T07:33:30.624Z,35
2016-06-13T07:34:30.642Z,40
2016-06-13T07:35:30.677Z,45
2016-06-13T07:36:30.696Z,45
2016-06-13T07:37:30.574Z,50
2016-06-13T07:38:30.764Z,50
2016-06-13T07:39:30.799Z,50
2016-06-13T07:40:30.817Z,50
2016-06-13T07:41:30.852Z,50
2016-06-13T07:42:30.886Z,50
2016-06-13T07:43:30.593Z,50
2016-06-13T07:44:30.752Z,55
2016-06-13T07:45:30.973Z,60
2016-06-13T07:46:30.991Z,65
2016-06-13T07:47:30.995Z,70
2016-06-13T07:48:31.014Z,75
2016-06-13T07:49:31.080Z,80
2016-06-13T07:50:31.067Z,90
2016-06-13T07:51:30.945Z,95
2016-06-13T07:52:31.151Z,100
2016-06-13T07:53:31.139Z,110
2016-06-13T07:54:31.173Z,115
2016-06-13T07:55:31.051Z,120
2016-06-13T07:56:31.070Z,120
2016-06-13T07:57:31.776Z,120
2016-06-13T07:58:31.544Z,115
2016-06-13T07:59:31.142Z,105
2016-06-13T08:00:31.332Z,105
2016-06-13T08:01:31.367Z,100
2016-06-13T08:02:31.385Z,95
2016-06-13T08:03:31.419Z,95
2016-06-13T08:04:31.282Z,90
2016-06-13T08:05:31.472Z,90
2016-06-13T08:06:31.522Z,85
2016-06-13T08:07:31.525Z,85
2016-06-13T08:08:31.559Z,85
2016-06-13T08:09:31.563Z,85
2016-06-13T08:10:31.456Z,85
2016-06-13T08:11:31.631Z,85
2016-06-13T08:12:31.526Z,85
2016-06-13T08:13:32.122Z,90
2016-06-13T08:14:31.718Z,100
2016-06-13T08:15:31.722Z,110
2016-06-13T08:16:31.599Z,120
2016-06-13T08:17:31.822Z,120
2016-06-13T08:18:31.809Z,120
2016-06-13T08:19:31.828Z,120
2016-06-13T08:20:31.878Z,120
2016-06-13T08:21:31.897Z,115
2016-06-13T08:22:31.915Z,110
2016-06-13T08:23:31.794Z,105
2016-06-13T08:24:31.968Z,90
2016-06-13T08:25:31.846Z,85
2016-06-13T08:26:32.053Z,85
2016-06-13T08:27:33.103Z,80
2016-06-13T08:28:32.277Z,75
2016-06-13T08:29:32.109Z,70
2016-06-13T08:30:32.143Z,70
2016-06-13T08:31:32.162Z,65
2016-06-13T08:32:32.212Z,60
2016-06-13T08:33:32.215Z,65
2016-06-13T08:34:32.249Z,75
2016-06-13T08:35:32.299Z,75
2016-06-13T08:36:32.303Z,80
2016-06-13T08:37:32.337Z,80
2016-06-13T08:38:32.356Z,80
2016-06-13T08:39:32.389Z,85
2016-06-13T08:40:32.252Z,85
2016-06-13T08:41:32.443Z,85
2016-06-13T08:42:33.445Z,80
2016-06-13T08:43:33.183Z,75
2016-06-13T08:44:32.514Z,75
2016-06-13T08:45:32.548Z,75
2016-06-13T08:46:32.583Z,70
2016-06-13T08:47:32.601Z,75
2016-06-13T08:48:32.636Z,80
2016-06-13T08:49:32.655Z,80
2016-06-13T08:50:32.688Z,90
2016-06-13T08:51:32.723Z,120
2016-06-13T08:52:32.617Z,125
2016-06-13T08:53:32.808Z,125
2016-06-13T08:54:32.794Z,125
2016-06-13T08:55:32.861Z,145
2016-06-13T08:56:32.864Z,175
2016-06-13T08:57:32.898Z,205
2016-06-13T08:58:33.323Z,220
2016-06-13T08:59:32.779Z,220
2016-06-13T09:00:32.969Z,200
2016-06-13T09:01:33.005Z,210
2016-06-13T09:02:33.038Z,190
2016-06-13T09:03:33.057Z,195
2016-06-13T09:04:32.935Z,165
2016-06-13T09:05:33.110Z,190
2016-06-13T09:06:33.128Z,190
2016-06-13T09:07:33.179Z,185
2016-06-13T09:08:33.182Z,205
2016-06-13T09:09:33.216Z,170
2016-06-13T09:10:33.250Z,195
2016-06-13T09:11:33.284Z,130
2016-06-13T09:12:33.569Z,115
2016-06-13T09:13:33.384Z,105
2016-06-13T09:14:33.372Z,120
2016-06-13T09:15:33.390Z,120
2016-06-13T09:16:33.410Z,115
2016-06-13T09:17:33.443Z,115
2016-06-13T09:18:33.462Z,110
2016-06-13T09:19:33.497Z,105
2016-06-13T09:20:33.531Z,110
2016-06-13T09:21:33.565Z,115
2016-06-13T09:22:33.584Z,120
2016-06-13T09:23:33.478Z,110
2016-06-13T09:24:33.636Z,100
2016-06-13T09:25:33.671Z,95
2016-06-13T09:26:33.706Z,95
2016-06-13T09:27:33.740Z,100
2016-06-13T09:28:33.837Z,110
2016-06-13T09:29:33.794Z,115
2016-06-13T09:30:33.811Z,115
2016-06-13T09:31:33.846Z,125
2016-06-13T09:32:33.725Z,140
2016-06-13T09:33:33.915Z,145
2016-06-13T09:34:33.934Z,150
2016-06-13T09:35:33.952Z,180
2016-06-13T09:36:34.017Z,190
2016-06-13T09:37:34.021Z,175
2016-06-13T09:38:34.071Z,165
2016-06-13T09:39:34.089Z,165
2016-06-13T09:40:34.092Z,175
2016-06-13T09:41:34.127Z,160
2016-06-13T09:42:34.145Z,150
2016-06-13T09:43:34.181Z,145
2016-06-13T09:44:34.215Z,145
2016-06-13T09:45:34.248Z,125
2016-06-13T09:46:34.267Z,125
2016-06-13T09:47:34.286Z,120
2016-06-13T09:48:34.321Z,130
2016-06-13T09:49:34.369Z,135
2016-06-13T09:50:34.233Z,130
2016-06-13T09:51:34.408Z,130
2016-06-13T09:52:34.286Z,130
2016-06-13T09:53:34.476Z,125
2016-06-13T09:54:34.495Z,140
2016-06-13T09:55:34.514Z,140
2016-06-13T09:56:34.548Z,145
2016-06-13T09:57:34.582Z,120
2016-06-13T09:58:35.195Z,110
2016-06-13T09:59:34.635Z,135
2016-06-13T10:00:34.669Z,140
2016-06-13T10:01:34.703Z,160
2016-06-13T10:02:34.723Z,150
2016-06-13T10:03:34.773Z,135
2016-06-13T10:04:34.806Z,135
2016-06-13T10:05:34.841Z,120
2016-06-13T10:06:34.860Z,85
2016-06-13T10:07:34.879Z,50
2016-06-13T10:08:34.913Z,35
2016-06-13T10:09:34.948Z,35
2016-06-13T10:10:34.966Z,40
2016-06-13T10:11:35.000Z,45
2016-06-13T10:12:35.051Z,50
2016-06-13T10:13:35.116Z,45
2016-06-13T10:14:35.087Z,35
2016-06-13T10:15:35.137Z,30
2016-06-13T10:16:35.141Z,30
2016-06-13T10:17:35.175Z,40
2016-06-13T10:18:35.194Z,50
2016-06-13T10:19:35.227Z,60
2016-06-13T10:20:35.262Z,70
2016-06-13T10:21:35.297Z,85
2016-06-13T10:22:35.300Z,95
2016-06-13T10:23:35.334Z,110
2016-06-13T10:24:35.369Z,125
2016-06-13T10:25:35.418Z,130
2016-06-13T10:26:35.421Z,135
2016-06-13T10:27:35.455Z,135
2016-06-13T10:28:36.178Z,135
2016-06-13T10:29:35.509Z,135
2016-06-13T10:30:35.542Z,135
2016-06-13T10:31:35.421Z,130
2016-06-13T10:32:35.627Z,135
2016-06-13T10:33:35.646Z,140
2016-06-13T10:34:35.649Z,145
2016-06-13T10:35:35.684Z,160
2016-06-13T10:36:35.733Z,175
2016-06-13T10:37:35.736Z,175
2016-06-13T10:38:35.770Z,150
2016-06-13T10:39:35.805Z,130
2016-06-13T10:40:35.839Z,135
2016-06-13T10:41:35.859Z,150
2016-06-13T10:42:35.893Z,155
2016-06-13T10:43:35.771Z,145
2016-06-13T10:44:35.960Z,140
2016-06-13T10:45:35.996Z,125
2016-06-13T10:46:35.999Z,115
2016-06-13T10:47:36.017Z,120
2016-06-13T10:48:36.051Z,140
2016-06-13T10:49:35.929Z,135
2016-06-13T10:50:36.120Z,125
2016-06-13T10:51:36.154Z,140
2016-06-13T10:52:36.017Z,135
2016-06-13T10:53:36.191Z,130
2016-06-13T10:54:36.226Z,120
2016-06-13T10:55:36.261Z,120
2016-06-13T10:56:36.295Z,115
2016-06-13T10:57:36.314Z,110
2016-06-13T10:58:36.239Z,115
2016-06-13T10:59:36.367Z,110
2016-06-13T11:00:36.401Z,120
2016-06-13T11:01:36.435Z,125
2016-06-13T11:02:36.313Z,130
2016-06-13T11:03:36.332Z,135
2016-06-13T11:04:36.382Z,140
2016-06-13T11:05:36.541Z,140
2016-06-13T11:06:36.576Z,130
2016-06-13T11:07:36.595Z,135
2016-06-13T11:08:36.629Z,135
2016-06-13T11:09:36.663Z,125
2016-06-13T11:10:36.682Z,125
2016-06-13T11:11:36.560Z,140
2016-06-13T11:12:36.750Z,125
2016-06-13T11:13:37.800Z,130
2016-06-13T11:14:36.803Z,120
2016-06-13T11:15:36.666Z,120
2016-06-13T11:16:36.872Z,115
2016-06-13T11:17:36.750Z,110
2016-06-13T11:18:36.909Z,105
2016-06-13T11:19:36.943Z,100
2016-06-13T11:20:36.979Z,95
2016-06-13T11:21:37.013Z,100
2016-06-13T11:22:37.031Z,100
2016-06-13T11:23:37.065Z,105
2016-06-13T11:24:37.100Z,110
2016-06-13T11:25:36.978Z,120
2016-06-13T11:26:37.184Z,120
2016-06-13T11:27:37.046Z,120
2016-06-13T11:28:38.018Z,115
2016-06-13T11:29:37.084Z,110
2016-06-13T11:30:39.524Z,110
2016-06-13T11:31:37.308Z,115
2016-06-13T11:32:37.311Z,120
2016-06-13T11:33:37.346Z,130
2016-06-13T11:34:37.397Z,150
2016-06-13T11:35:37.275Z,155
2016-06-13T11:36:37.434Z,155
2016-06-13T11:37:37.452Z,140
2016-06-13T11:38:37.487Z,135
2016-06-13T11:39:37.521Z,135
2016-06-13T11:40:37.399Z,130
2016-06-13T11:41:37.433Z,125
2016-06-13T11:42:37.608Z,125
2016-06-13T11:43:37.658Z,120
2016-06-13T11:44:37.506Z,120
2016-06-13T11:45:37.540Z,120
2016-06-13T11:46:37.729Z,115
2016-06-13T11:47:37.592Z,120
2016-06-13T11:48:37.782Z,110
2016-06-13T11:49:37.801Z,105
2016-06-13T11:50:37.835Z,110
2016-06-13T11:51:37.870Z,110
2016-06-13T11:52:37.889Z,110
2016-06-13T11:53:37.923Z,110
2016-06-13T11:54:37.958Z,105
2016-06-13T11:55:38.007Z,105
2016-06-13T11:56:38.057Z,110
2016-06-13T11:57:38.030Z,90
2016-06-13T11:58:38.173Z,90
2016-06-13T11:59:38.098Z,105
2016-06-13T12:00:38.132Z,100
2016-06-13T12:01:38.136Z,105
2016-06-13T12:02:38.201Z,115
2016-06-13T12:03:38.063Z,125
2016-06-13T12:04:38.098Z,130
2016-06-13T12:05:38.287Z,130
2016-06-13T12:06:38.306Z,115
2016-06-13T12:07:38.341Z,110
2016-06-13T12:08:38.204Z,105
2016-06-13T12:09:38.394Z,95
2016-06-13T12:10:38.413Z,90
2016-06-13T12:11:38.447Z,80
2016-06-13T12:12:38.481Z,60
2016-06-13T12:13:39.937Z,40
2016-06-13T12:14:38.409Z,35
2016-06-13T12:15:38.569Z,30
2016-06-13T12:16:38.587Z,30
2016-06-13T12:17:38.465Z,40
2016-06-13T12:18:38.641Z,40
2016-06-13T12:19:38.675Z,40
2016-06-13T12:20:38.553Z,50
2016-06-13T12:21:38.728Z,55
2016-06-13T12:22:38.762Z,60
2016-06-13T12:23:38.781Z,65
2016-06-13T12:24:38.815Z,65
2016-06-13T12:25:38.866Z,65
2016-06-13T12:26:38.868Z,60
2016-06-13T12:27:38.902Z,60
2016-06-13T12:28:39.859Z,60
2016-06-13T12:29:39.581Z,60
2016-06-13T12:30:38.990Z,55
2016-06-13T12:31:39.039Z,65
2016-06-13T12:32:39.043Z,60
2016-06-13T12:33:38.952Z,45
2016-06-13T12:34:39.168Z,35
2016-06-13T12:35:39.243Z,25
2016-06-13T12:36:39.318Z,25
2016-06-13T12:37:39.393Z,25
2016-06-13T12:38:39.432Z,30
2016-06-13T12:39:39.309Z,40
2016-06-13T12:40:39.514Z,40
2016-06-13T12:41:39.564Z,40
2016-06-13T12:42:39.613Z,45
2016-06-13T12:43:40.404Z,45
2016-06-13T12:44:39.693Z,45
2016-06-13T12:45:39.701Z,45
2016-06-13T12:46:39.741Z,45
2016-06-13T12:47:39.780Z,45
2016-06-13T12:48:39.817Z,45
2016-06-13T12:49:39.869Z,45
2016-06-13T12:50:39.858Z,45
2016-06-13T12:51:39.895Z,45
2016-06-13T12:52:39.931Z,40
2016-06-13T12:53:39.982Z,40
2016-06-13T12:54:39.986Z,35
2016-06-13T12:55:40.021Z,35
2016-06-13T12:56:40.040Z,40
2016-06-13T12:57:40.122Z,50
2016-06-13T12:58:40.282Z,60
2016-06-13T12:59:39.988Z,70
2016-06-13T13:00:40.164Z,85
2016-06-13T13:01:40.198Z,100
2016-06-13T13:02:43.218Z,110
2016-06-13T13:03:40.251Z,115
2016-06-13T13:04:40.318Z,115
2016-06-13T13:05:40.305Z,115
2016-06-13T13:06:40.339Z,115
2016-06-13T13:07:40.389Z,115
2016-06-13T13:08:40.393Z,120
2016-06-13T13:09:40.426Z,120
2016-06-13T13:10:40.446Z,125
2016-06-13T13:11:40.386Z,120
2016-06-13T13:12:40.874Z,115
2016-06-13T13:13:40.532Z,110
2016-06-13T13:14:40.567Z,110
2016-06-13T13:15:40.617Z,115
2016-06-13T13:16:40.620Z,105
2016-06-13T13:17:40.655Z,100
2016-06-13T13:18:40.673Z,95
2016-06-13T13:19:40.567Z,85
2016-06-13T13:20:40.742Z,70
2016-06-13T13:21:40.604Z,45
2016-06-13T13:22:40.654Z,25
2016-06-13T13:23:40.673Z,15
2016-06-13T13:24:40.847Z,10
2016-06-13T13:25:40.883Z,15
2016-06-13T13:26:40.901Z,15
2016-06-13T13:27:40.935Z,15
2016-06-13T13:28:41.532Z,15
2016-06-13T13:29:41.410Z,15
2016-06-13T13:30:41.023Z,15
2016-06-13T13:31:41.057Z,15
2016-06-13T13:32:41.076Z,15
2016-06-13T13:33:41.094Z,10
2016-06-13T13:34:41.144Z,10
2016-06-13T13:35:41.023Z,10
2016-06-13T13:36:41.197Z,10
2016-06-13T13:37:41.216Z,15
2016-06-13T13:38:41.251Z,15
2016-06-13T13:39:41.285Z,15
2016-06-13T13:40:41.304Z,20
2016-06-13T13:41:41.229Z,20
2016-06-13T13:42:41.372Z,20
2016-06-13T13:43:42.453Z,20
2016-06-13T13:44:41.331Z,25
2016-06-13T13:45:42.350Z,30
2016-06-13T13:46:41.369Z,35
2016-06-13T13:47:41.543Z,40
2016-06-13T13:48:41.562Z,45
2016-06-13T13:49:41.565Z,55
2016-06-13T13:50:41.459Z,60
2016-06-13T13:51:41.635Z,65
2016-06-13T13:52:41.638Z,65
2016-06-13T13:53:41.687Z,60
2016-06-13T13:54:41.706Z,60
2016-06-13T13:55:41.724Z,60
2016-06-13T13:56:41.617Z,55
2016-06-13T13:57:41.824Z,55
2016-06-13T13:58:42.515Z,55
2016-06-13T13:59:42.424Z,60
2016-06-13T14:00:41.865Z,60
2016-06-13T14:01:41.899Z,60
2016-06-13T14:02:41.933Z,60
2016-06-13T14:03:41.953Z,60
2016-06-13T14:04:41.971Z,55
2016-06-13T14:05:42.005Z,55
2016-06-13T14:06:42.039Z,55
2016-06-13T14:07:42.059Z,55
2016-06-13T14:08:42.093Z,60
2016-06-13T14:09:42.127Z,60
2016-06-13T14:10:42.161Z,65
2016-06-13T14:11:42.180Z,65
2016-06-13T14:12:42.058Z,65
2016-06-13T14:13:42.264Z,65
2016-06-13T14:14:42.001Z,70
2016-06-13T14:15:42.301Z,70
2016-06-13T14:16:42.164Z,70
2016-06-13T14:17:42.198Z,70
2016-06-13T14:18:42.405Z,70